sensor_id;sensor_type;location;lat;lon;timestamp;P1;durP1;ratioP1;P2;durP2;ratioP2
24859;SDS011;12936;52.006;4.350;2022-08-19T00:01:23;7.63;;;4.80;;
24859;SDS011;12936;52.006;4.350;2022-08-19T00:03:55;7.00;;;4.50;;
24859;SDS011;12936;52.006;4.350;2022-08-19T00:06:24;8.23;;;4.55;;
24859;SDS011;12936;52.006;4.350;2022-08-19T00:08:52;6.30;;;4.47;;
24859;SDS011;12936;52.006;4.350;2022-08-19T00:11:21;6.35;;;4.45;;
24859;SDS011;12936;52.006;4.350;2022-08-19T00:13:52;7.75;;;4.55;;
24859;SDS011;12936;52.006;4.350;2022-08-19T00:16:23;5.53;;;4.53;;
24859;SDS011;12936;52.006;4.350;2022-08-19T00:18:52;7.82;;;4.55;;
24859;SDS011;12936;52.006;4.350;2022-08-19T00:21:21;7.05;;;4.93;;
24859;SDS011;12936;52.006;4.350;2022-08-19T00:23:52;7.45;;;4.95;;
24859;SDS011;12936;52.006;4.350;2022-08-19T00:26:20;7.82;;;5.00;;
24859;SDS011;12936;52.006;4.350;2022-08-19T00:28:48;5.80;;;4.80;;
24859;SDS011;12936;52.006;4.350;2022-08-19T00:31:18;5.93;;;5.00;;
24859;SDS011;12936;52.006;4.350;2022-08-19T00:33:47;8.38;;;5.68;;
24859;SDS011;12936;52.006;4.350;2022-08-19T00:36:19;7.47;;;5.68;;
24859;SDS011;12936;52.006;4.350;2022-08-19T00:38:48;6.80;;;4.85;;
24859;SDS011;12936;52.006;4.350;2022-08-19T00:41:18;8.73;;;6.03;;
24859;SDS011;12936;52.006;4.350;2022-08-19T00:43:56;8.50;;;5.43;;
24859;SDS011;12936;52.006;4.350;2022-08-19T00:46:29;6.72;;;5.30;;
24859;SDS011;12936;52.006;4.350;2022-08-19T00:48:57;7.03;;;5.32;;
24859;SDS011;12936;52.006;4.350;2022-08-19T00:51:27;8.85;;;5.40;;
24859;SDS011;12936;52.006;4.350;2022-08-19T00:53:56;6.60;;;5.35;;
24859;SDS011;12936;52.006;4.350;2022-08-19T00:56:26;8.30;;;5.32;;
24859;SDS011;12936;52.006;4.350;2022-08-19T00:58:55;8.48;;;6.05;;
24859;SDS011;12936;52.006;4.350;2022-08-19T01:01:24;8.52;;;5.68;;
24859;SDS011;12936;52.006;4.350;2022-08-19T01:03:54;9.23;;;6.72;;
24859;SDS011;12936;52.006;4.350;2022-08-19T01:06:24;8.88;;;6.07;;
24859;SDS011;12936;52.006;4.350;2022-08-19T01:08:53;7.95;;;6.32;;
24859;SDS011;12936;52.006;4.350;2022-08-19T01:11:21;8.73;;;6.38;;
24859;SDS011;12936;52.006;4.350;2022-08-19T01:13:50;9.98;;;7.10;;
24859;SDS011;12936;52.006;4.350;2022-08-19T01:16:20;7.40;;;6.63;;
24859;SDS011;12936;52.006;4.350;2022-08-19T01:18:49;10.93;;;7.82;;
24859;SDS011;12936;52.006;4.350;2022-08-19T01:21:22;12.20;;;9.15;;
24859;SDS011;12936;52.006;4.350;2022-08-19T01:23:53;11.80;;;7.82;;
24859;SDS011;12936;52.006;4.350;2022-08-19T01:26:22;14.05;;;9.10;;
24859;SDS011;12936;52.006;4.350;2022-08-19T01:28:52;14.07;;;9.73;;
24859;SDS011;12936;52.006;4.350;2022-08-19T01:31:25;19.25;;;10.75;;
24859;SDS011;12936;52.006;4.350;2022-08-19T01:33:58;14.82;;;11.50;;
24859;SDS011;12936;52.006;4.350;2022-08-19T01:36:29;14.63;;;11.68;;
24859;SDS011;12936;52.006;4.350;2022-08-19T01:39:00;15.25;;;11.77;;
24859;SDS011;12936;52.006;4.350;2022-08-19T01:41:28;14.73;;;11.88;;
24859;SDS011;12936;52.006;4.350;2022-08-19T01:43:56;15.68;;;12.68;;
24859;SDS011;12936;52.006;4.350;2022-08-19T01:46:44;16.33;;;13.05;;
24859;SDS011;12936;52.006;4.350;2022-08-19T01:49:15;17.48;;;13.65;;
24859;SDS011;12936;52.006;4.350;2022-08-19T01:51:45;19.52;;;15.23;;
24859;SDS011;12936;52.006;4.350;2022-08-19T01:54:15;21.15;;;17.58;;
24859;SDS011;12936;52.006;4.350;2022-08-19T01:56:53;25.75;;;19.00;;
24859;SDS011;12936;52.006;4.350;2022-08-19T01:59:22;26.08;;;19.38;;
24859;SDS011;12936;52.006;4.350;2022-08-19T02:01:51;23.60;;;19.77;;
24859;SDS011;12936;52.006;4.350;2022-08-19T02:04:20;28.27;;;20.58;;
24859;SDS011;12936;52.006;4.350;2022-08-19T02:06:49;29.92;;;21.20;;
24859;SDS011;12936;52.006;4.350;2022-08-19T02:09:19;33.88;;;22.20;;
24859;SDS011;12936;52.006;4.350;2022-08-19T02:11:47;31.55;;;22.45;;
24859;SDS011;12936;52.006;4.350;2022-08-19T02:14:16;36.22;;;25.08;;
24859;SDS011;12936;52.006;4.350;2022-08-19T02:16:44;32.78;;;22.75;;
24859;SDS011;12936;52.006;4.350;2022-08-19T02:19:12;30.80;;;23.23;;
24859;SDS011;12936;52.006;4.350;2022-08-19T02:21:41;29.38;;;22.73;;
24859;SDS011;12936;52.006;4.350;2022-08-19T02:24:09;29.67;;;21.73;;
24859;SDS011;12936;52.006;4.350;2022-08-19T02:26:39;26.98;;;20.17;;
24859;SDS011;12936;52.006;4.350;2022-08-19T02:29:08;34.65;;;21.23;;
24859;SDS011;12936;52.006;4.350;2022-08-19T02:31:36;26.33;;;19.73;;
24859;SDS011;12936;52.006;4.350;2022-08-19T02:34:04;30.15;;;20.23;;
24859;SDS011;12936;52.006;4.350;2022-08-19T02:36:33;28.42;;;19.77;;
24859;SDS011;12936;52.006;4.350;2022-08-19T02:39:07;28.80;;;19.48;;
24859;SDS011;12936;52.006;4.350;2022-08-19T02:41:35;26.30;;;18.65;;
24859;SDS011;12936;52.006;4.350;2022-08-19T02:44:05;26.52;;;18.85;;
24859;SDS011;12936;52.006;4.350;2022-08-19T02:46:53;29.92;;;20.25;;
24859;SDS011;12936;52.006;4.350;2022-08-19T02:49:21;29.52;;;18.85;;
24859;SDS011;12936;52.006;4.350;2022-08-19T02:51:50;30.58;;;19.55;;
24859;SDS011;12936;52.006;4.350;2022-08-19T02:54:18;28.27;;;18.80;;
24859;SDS011;12936;52.006;4.350;2022-08-19T02:56:47;30.58;;;20.67;;
24859;SDS011;12936;52.006;4.350;2022-08-19T02:59:16;27.10;;;20.17;;
24859;SDS011;12936;52.006;4.350;2022-08-19T03:01:48;27.83;;;20.17;;
24859;SDS011;12936;52.006;4.350;2022-08-19T03:04:16;25.15;;;19.17;;
24859;SDS011;12936;52.006;4.350;2022-08-19T03:06:46;32.28;;;20.70;;
24859;SDS011;12936;52.006;4.350;2022-08-19T03:09:14;25.70;;;18.95;;
24859;SDS011;12936;52.006;4.350;2022-08-19T03:11:43;30.90;;;19.60;;
24859;SDS011;12936;52.006;4.350;2022-08-19T03:14:13;29.42;;;20.08;;
24859;SDS011;12936;52.006;4.350;2022-08-19T03:16:45;30.95;;;20.45;;
24859;SDS011;12936;52.006;4.350;2022-08-19T03:19:15;29.50;;;21.05;;
24859;SDS011;12936;52.006;4.350;2022-08-19T03:21:45;31.33;;;21.33;;
24859;SDS011;12936;52.006;4.350;2022-08-19T03:24:14;34.53;;;22.05;;
24859;SDS011;12936;52.006;4.350;2022-08-19T03:26:44;33.30;;;21.90;;
24859;SDS011;12936;52.006;4.350;2022-08-19T03:29:12;36.40;;;24.30;;
24859;SDS011;12936;52.006;4.350;2022-08-19T03:31:55;36.63;;;23.50;;
24859;SDS011;12936;52.006;4.350;2022-08-19T03:34:26;38.08;;;24.15;;
24859;SDS011;12936;52.006;4.350;2022-08-19T03:36:55;38.88;;;24.42;;
24859;SDS011;12936;52.006;4.350;2022-08-19T03:39:24;48.92;;;26.55;;
24859;SDS011;12936;52.006;4.350;2022-08-19T03:41:53;39.83;;;26.60;;
24859;SDS011;12936;52.006;4.350;2022-08-19T03:44:43;47.85;;;28.05;;
24859;SDS011;12936;52.006;4.350;2022-08-19T03:47:13;43.55;;;27.95;;
24859;SDS011;12936;52.006;4.350;2022-08-19T03:49:43;47.30;;;28.60;;
24859;SDS011;12936;52.006;4.350;2022-08-19T03:52:12;48.47;;;30.08;;
24859;SDS011;12936;52.006;4.350;2022-08-19T03:54:41;50.95;;;30.55;;
24859;SDS011;12936;52.006;4.350;2022-08-19T03:57:10;51.15;;;31.27;;
24859;SDS011;12936;52.006;4.350;2022-08-19T03:59:38;53.58;;;31.88;;
24859;SDS011;12936;52.006;4.350;2022-08-19T04:02:08;53.05;;;32.88;;
24859;SDS011;12936;52.006;4.350;2022-08-19T04:04:38;51.67;;;32.83;;
24859;SDS011;12936;52.006;4.350;2022-08-19T04:07:07;50.25;;;32.40;;
24859;SDS011;12936;52.006;4.350;2022-08-19T04:09:36;49.03;;;31.88;;
24859;SDS011;12936;52.006;4.350;2022-08-19T04:12:04;52.67;;;31.77;;
24859;SDS011;12936;52.006;4.350;2022-08-19T04:14:33;50.95;;;32.75;;
24859;SDS011;12936;52.006;4.350;2022-08-19T04:17:02;55.42;;;33.58;;
24859;SDS011;12936;52.006;4.350;2022-08-19T04:19:32;54.30;;;31.40;;
24859;SDS011;12936;52.006;4.350;2022-08-19T04:22:02;51.58;;;31.33;;
24859;SDS011;12936;52.006;4.350;2022-08-19T04:24:30;48.60;;;31.60;;
24859;SDS011;12936;52.006;4.350;2022-08-19T04:26:59;52.33;;;32.15;;
24859;SDS011;12936;52.006;4.350;2022-08-19T04:29:28;50.95;;;32.47;;
24859;SDS011;12936;52.006;4.350;2022-08-19T04:31:57;48.33;;;29.40;;
24859;SDS011;12936;52.006;4.350;2022-08-19T04:34:35;47.92;;;28.23;;
24859;SDS011;12936;52.006;4.350;2022-08-19T04:37:25;47.13;;;28.38;;
24859;SDS011;12936;52.006;4.350;2022-08-19T04:40:00;49.47;;;29.48;;
24859;SDS011;12936;52.006;4.350;2022-08-19T04:42:46;46.83;;;28.05;;
24859;SDS011;12936;52.006;4.350;2022-08-19T04:45:15;48.42;;;26.90;;
24859;SDS011;12936;52.006;4.350;2022-08-19T04:47:43;47.35;;;27.52;;
24859;SDS011;12936;52.006;4.350;2022-08-19T04:50:24;49.85;;;27.75;;
24859;SDS011;12936;52.006;4.350;2022-08-19T04:52:54;46.88;;;26.58;;
24859;SDS011;12936;52.006;4.350;2022-08-19T04:55:23;48.30;;;26.27;;
24859;SDS011;12936;52.006;4.350;2022-08-19T04:57:52;47.72;;;26.13;;
24859;SDS011;12936;52.006;4.350;2022-08-19T05:00:21;38.22;;;24.80;;
24859;SDS011;12936;52.006;4.350;2022-08-19T05:02:49;46.92;;;27.77;;
24859;SDS011;12936;52.006;4.350;2022-08-19T05:05:18;42.55;;;25.63;;
24859;SDS011;12936;52.006;4.350;2022-08-19T05:07:47;42.92;;;26.08;;
24859;SDS011;12936;52.006;4.350;2022-08-19T05:10:16;44.75;;;26.02;;
24859;SDS011;12936;52.006;4.350;2022-08-19T05:12:45;45.72;;;25.73;;
24859;SDS011;12936;52.006;4.350;2022-08-19T05:15:13;46.10;;;25.15;;
24859;SDS011;12936;52.006;4.350;2022-08-19T05:17:42;40.83;;;25.65;;
24859;SDS011;12936;52.006;4.350;2022-08-19T05:20:31;37.17;;;23.77;;
24859;SDS011;12936;52.006;4.350;2022-08-19T05:23:17;42.00;;;25.15;;
24859;SDS011;12936;52.006;4.350;2022-08-19T05:25:49;41.83;;;24.33;;
24859;SDS011;12936;52.006;4.350;2022-08-19T05:28:18;40.45;;;23.70;;
24859;SDS011;12936;52.006;4.350;2022-08-19T05:30:46;41.95;;;22.73;;
24859;SDS011;12936;52.006;4.350;2022-08-19T05:33:17;37.40;;;23.70;;
24859;SDS011;12936;52.006;4.350;2022-08-19T05:35:45;40.85;;;23.30;;
24859;SDS011;12936;52.006;4.350;2022-08-19T05:38:14;37.42;;;21.92;;
24859;SDS011;12936;52.006;4.350;2022-08-19T05:40:43;34.65;;;20.95;;
24859;SDS011;12936;52.006;4.350;2022-08-19T05:43:16;43.95;;;21.50;;
24859;SDS011;12936;52.006;4.350;2022-08-19T05:45:45;45.72;;;22.77;;
24859;SDS011;12936;52.006;4.350;2022-08-19T05:48:13;36.75;;;22.80;;
24859;SDS011;12936;52.006;4.350;2022-08-19T05:50:46;38.85;;;22.60;;
24859;SDS011;12936;52.006;4.350;2022-08-19T05:53:16;37.35;;;22.02;;
24859;SDS011;12936;52.006;4.350;2022-08-19T05:55:44;37.78;;;21.52;;
24859;SDS011;12936;52.006;4.350;2022-08-19T05:58:13;37.10;;;22.15;;
24859;SDS011;12936;52.006;4.350;2022-08-19T06:00:43;34.75;;;21.30;;
24859;SDS011;12936;52.006;4.350;2022-08-19T06:03:12;39.90;;;21.83;;
24859;SDS011;12936;52.006;4.350;2022-08-19T06:05:41;40.42;;;23.13;;
24859;SDS011;12936;52.006;4.350;2022-08-19T06:08:17;38.40;;;20.65;;
24859;SDS011;12936;52.006;4.350;2022-08-19T06:11:11;34.95;;;20.73;;
24859;SDS011;12936;52.006;4.350;2022-08-19T06:13:39;37.20;;;20.20;;
24859;SDS011;12936;52.006;4.350;2022-08-19T06:16:09;36.55;;;21.05;;
24859;SDS011;12936;52.006;4.350;2022-08-19T06:18:37;36.90;;;20.98;;
24859;SDS011;12936;52.006;4.350;2022-08-19T06:21:05;33.40;;;20.75;;
24859;SDS011;12936;52.006;4.350;2022-08-19T06:23:34;39.67;;;20.35;;
24859;SDS011;12936;52.006;4.350;2022-08-19T06:26:02;37.63;;;19.95;;
24859;SDS011;12936;52.006;4.350;2022-08-19T06:28:31;34.97;;;19.63;;
24859;SDS011;12936;52.006;4.350;2022-08-19T06:31:05;35.92;;;19.95;;
24859;SDS011;12936;52.006;4.350;2022-08-19T06:33:35;35.53;;;18.67;;
24859;SDS011;12936;52.006;4.350;2022-08-19T06:36:07;33.80;;;19.13;;
24859;SDS011;12936;52.006;4.350;2022-08-19T06:38:36;36.13;;;19.40;;
24859;SDS011;12936;52.006;4.350;2022-08-19T06:41:05;35.47;;;18.48;;
24859;SDS011;12936;52.006;4.350;2022-08-19T06:43:33;32.70;;;17.98;;
24859;SDS011;12936;52.006;4.350;2022-08-19T06:46:11;33.83;;;19.15;;
24859;SDS011;12936;52.006;4.350;2022-08-19T06:48:41;32.25;;;18.45;;
24859;SDS011;12936;52.006;4.350;2022-08-19T06:51:11;34.45;;;18.88;;
24859;SDS011;12936;52.006;4.350;2022-08-19T06:53:44;32.17;;;18.73;;
24859;SDS011;12936;52.006;4.350;2022-08-19T06:56:14;28.67;;;17.80;;
24859;SDS011;12936;52.006;4.350;2022-08-19T06:58:43;30.42;;;17.50;;
24859;SDS011;12936;52.006;4.350;2022-08-19T07:01:12;34.88;;;18.05;;
24859;SDS011;12936;52.006;4.350;2022-08-19T07:03:42;33.15;;;18.23;;
24859;SDS011;12936;52.006;4.350;2022-08-19T07:06:14;32.00;;;17.33;;
24859;SDS011;12936;52.006;4.350;2022-08-19T07:09:04;30.63;;;16.88;;
24859;SDS011;12936;52.006;4.350;2022-08-19T07:11:33;31.27;;;16.58;;
24859;SDS011;12936;52.006;4.350;2022-08-19T07:14:01;28.90;;;15.60;;
24859;SDS011;12936;52.006;4.350;2022-08-19T07:16:30;34.35;;;17.02;;
24859;SDS011;12936;52.006;4.350;2022-08-19T07:19:00;27.48;;;15.82;;
24859;SDS011;12936;52.006;4.350;2022-08-19T07:21:41;26.70;;;16.08;;
24859;SDS011;12936;52.006;4.350;2022-08-19T07:24:09;26.15;;;15.77;;
24859;SDS011;12936;52.006;4.350;2022-08-19T07:26:39;32.55;;;15.40;;
24859;SDS011;12936;52.006;4.350;2022-08-19T07:29:08;27.08;;;15.73;;
24859;SDS011;12936;52.006;4.350;2022-08-19T07:31:36;25.10;;;14.82;;
24859;SDS011;12936;52.006;4.350;2022-08-19T07:34:07;24.67;;;14.85;;
24859;SDS011;12936;52.006;4.350;2022-08-19T07:36:37;23.50;;;13.90;;
24859;SDS011;12936;52.006;4.350;2022-08-19T07:39:08;28.10;;;15.15;;
24859;SDS011;12936;52.006;4.350;2022-08-19T07:41:37;22.85;;;13.20;;
24859;SDS011;12936;52.006;4.350;2022-08-19T07:44:05;25.20;;;13.35;;
24859;SDS011;12936;52.006;4.350;2022-08-19T07:46:35;18.75;;;12.75;;
24859;SDS011;12936;52.006;4.350;2022-08-19T07:49:05;27.33;;;13.05;;
24859;SDS011;12936;52.006;4.350;2022-08-19T07:51:34;29.67;;;12.80;;
24859;SDS011;12936;52.006;4.350;2022-08-19T07:54:03;22.63;;;12.23;;
24859;SDS011;12936;52.006;4.350;2022-08-19T07:56:32;20.45;;;11.77;;
24859;SDS011;12936;52.006;4.350;2022-08-19T07:59:00;26.40;;;11.93;;
24859;SDS011;12936;52.006;4.350;2022-08-19T08:01:28;23.85;;;11.95;;
24859;SDS011;12936;52.006;4.350;2022-08-19T08:03:57;21.80;;;10.15;;
24859;SDS011;12936;52.006;4.350;2022-08-19T08:06:44;18.15;;;8.40;;
24859;SDS011;12936;52.006;4.350;2022-08-19T08:09:32;14.20;;;6.38;;
24859;SDS011;12936;52.006;4.350;2022-08-19T08:12:06;12.18;;;6.20;;
24859;SDS011;12936;52.006;4.350;2022-08-19T08:14:56;10.98;;;6.28;;
24859;SDS011;12936;52.006;4.350;2022-08-19T08:17:26;8.95;;;5.53;;
24859;SDS011;12936;52.006;4.350;2022-08-19T08:20:14;10.27;;;5.97;;
24859;SDS011;12936;52.006;4.350;2022-08-19T08:22:44;10.43;;;5.90;;
24859;SDS011;12936;52.006;4.350;2022-08-19T08:25:30;14.38;;;6.38;;
24859;SDS011;12936;52.006;4.350;2022-08-19T08:27:59;13.65;;;6.80;;
24859;SDS011;12936;52.006;4.350;2022-08-19T08:30:28;11.35;;;6.70;;
24859;SDS011;12936;52.006;4.350;2022-08-19T08:32:59;18.75;;;6.40;;
24859;SDS011;12936;52.006;4.350;2022-08-19T08:35:28;10.63;;;5.55;;
24859;SDS011;12936;52.006;4.350;2022-08-19T08:37:57;8.68;;;5.35;;
24859;SDS011;12936;52.006;4.350;2022-08-19T08:40:27;7.90;;;4.90;;
24859;SDS011;12936;52.006;4.350;2022-08-19T08:42:57;13.15;;;5.20;;
24859;SDS011;12936;52.006;4.350;2022-08-19T08:45:28;13.23;;;5.30;;
24859;SDS011;12936;52.006;4.350;2022-08-19T08:48:10;10.80;;;5.22;;
24859;SDS011;12936;52.006;4.350;2022-08-19T08:50:49;11.15;;;5.15;;
24859;SDS011;12936;52.006;4.350;2022-08-19T08:53:20;13.98;;;5.97;;
24859;SDS011;12936;52.006;4.350;2022-08-19T08:55:57;13.80;;;5.30;;
24859;SDS011;12936;52.006;4.350;2022-08-19T08:58:28;12.57;;;5.40;;
24859;SDS011;12936;52.006;4.350;2022-08-19T09:00:59;15.57;;;6.57;;
24859;SDS011;12936;52.006;4.350;2022-08-19T09:03:27;14.27;;;5.18;;
24859;SDS011;12936;52.006;4.350;2022-08-19T09:05:59;10.63;;;5.68;;
24859;SDS011;12936;52.006;4.350;2022-08-19T09:08:33;10.13;;;5.82;;
24859;SDS011;12936;52.006;4.350;2022-08-19T09:11:05;10.77;;;5.22;;
24859;SDS011;12936;52.006;4.350;2022-08-19T09:13:38;9.43;;;4.95;;
24859;SDS011;12936;52.006;4.350;2022-08-19T09:16:12;10.02;;;3.90;;
24859;SDS011;12936;52.006;4.350;2022-08-19T09:18:41;12.57;;;4.47;;
24859;SDS011;12936;52.006;4.350;2022-08-19T09:21:10;7.13;;;3.35;;
24859;SDS011;12936;52.006;4.350;2022-08-19T09:23:40;9.10;;;3.80;;
24859;SDS011;12936;52.006;4.350;2022-08-19T09:26:10;8.57;;;3.88;;
24859;SDS011;12936;52.006;4.350;2022-08-19T09:28:42;8.00;;;3.40;;
24859;SDS011;12936;52.006;4.350;2022-08-19T09:31:14;8.65;;;3.45;;
24859;SDS011;12936;52.006;4.350;2022-08-19T09:33:43;6.55;;;3.08;;
24859;SDS011;12936;52.006;4.350;2022-08-19T09:36:12;7.45;;;2.95;;
24859;SDS011;12936;52.006;4.350;2022-08-19T09:39:01;11.80;;;3.40;;
24859;SDS011;12936;52.006;4.350;2022-08-19T09:41:41;7.82;;;2.90;;
24859;SDS011;12936;52.006;4.350;2022-08-19T09:44:14;10.75;;;3.10;;
24859;SDS011;12936;52.006;4.350;2022-08-19T09:46:44;7.85;;;3.25;;
24859;SDS011;12936;52.006;4.350;2022-08-19T09:49:14;7.20;;;3.22;;
24859;SDS011;12936;52.006;4.350;2022-08-19T09:51:44;8.90;;;3.47;;
24859;SDS011;12936;52.006;4.350;2022-08-19T09:54:18;11.23;;;3.85;;
24859;SDS011;12936;52.006;4.350;2022-08-19T09:56:50;6.20;;;3.30;;
24859;SDS011;12936;52.006;4.350;2022-08-19T09:59:19;6.90;;;3.38;;
24859;SDS011;12936;52.006;4.350;2022-08-19T10:01:47;9.00;;;4.15;;
24859;SDS011;12936;52.006;4.350;2022-08-19T10:04:15;10.45;;;4.15;;
24859;SDS011;12936;52.006;4.350;2022-08-19T10:06:47;6.32;;;3.50;;
24859;SDS011;12936;52.006;4.350;2022-08-19T10:09:20;8.38;;;3.92;;
24859;SDS011;12936;52.006;4.350;2022-08-19T10:12:00;6.50;;;2.97;;
24859;SDS011;12936;52.006;4.350;2022-08-19T10:14:28;7.20;;;3.28;;
24859;SDS011;12936;52.006;4.350;2022-08-19T10:16:57;8.13;;;2.80;;
24859;SDS011;12936;52.006;4.350;2022-08-19T10:19:43;5.72;;;2.47;;
24859;SDS011;12936;52.006;4.350;2022-08-19T10:22:20;7.07;;;3.53;;
24859;SDS011;12936;52.006;4.350;2022-08-19T10:24:53;5.88;;;2.72;;
24859;SDS011;12936;52.006;4.350;2022-08-19T10:27:21;4.65;;;2.30;;
24859;SDS011;12936;52.006;4.350;2022-08-19T10:29:51;14.02;;;2.30;;
24859;SDS011;12936;52.006;4.350;2022-08-19T10:32:20;4.50;;;1.98;;
24859;SDS011;12936;52.006;4.350;2022-08-19T10:34:59;3.80;;;2.00;;
24859;SDS011;12936;52.006;4.350;2022-08-19T10:37:31;3.78;;;1.80;;
24859;SDS011;12936;52.006;4.350;2022-08-19T10:40:02;8.20;;;2.05;;
24859;SDS011;12936;52.006;4.350;2022-08-19T10:42:31;4.97;;;1.90;;
24859;SDS011;12936;52.006;4.350;2022-08-19T10:44:59;3.78;;;1.98;;
24859;SDS011;12936;52.006;4.350;2022-08-19T10:47:30;6.53;;;2.22;;
24859;SDS011;12936;52.006;4.350;2022-08-19T10:49:58;4.75;;;2.00;;
24859;SDS011;12936;52.006;4.350;2022-08-19T10:52:47;5.88;;;2.10;;
24859;SDS011;12936;52.006;4.350;2022-08-19T10:55:18;5.47;;;1.90;;
24859;SDS011;12936;52.006;4.350;2022-08-19T10:58:09;3.50;;;2.15;;
24859;SDS011;12936;52.006;4.350;2022-08-19T11:00:37;6.85;;;2.40;;
24859;SDS011;12936;52.006;4.350;2022-08-19T11:03:06;5.18;;;2.15;;
24859;SDS011;12936;52.006;4.350;2022-08-19T11:05:35;5.88;;;2.00;;
24859;SDS011;12936;52.006;4.350;2022-08-19T11:08:05;3.10;;;1.80;;
24859;SDS011;12936;52.006;4.350;2022-08-19T11:10:51;5.10;;;2.17;;
24859;SDS011;12936;52.006;4.350;2022-08-19T11:13:27;3.70;;;1.85;;
24859;SDS011;12936;52.006;4.350;2022-08-19T11:15:56;8.25;;;2.38;;
24859;SDS011;12936;52.006;4.350;2022-08-19T11:18:31;7.18;;;2.30;;
24859;SDS011;12936;52.006;4.350;2022-08-19T11:21:05;5.63;;;2.17;;
24859;SDS011;12936;52.006;4.350;2022-08-19T11:23:33;5.22;;;2.33;;
24859;SDS011;12936;52.006;4.350;2022-08-19T11:26:03;3.75;;;2.00;;
24859;SDS011;12936;52.006;4.350;2022-08-19T11:28:32;5.75;;;2.00;;
24859;SDS011;12936;52.006;4.350;2022-08-19T11:31:00;4.93;;;2.30;;
24859;SDS011;12936;52.006;4.350;2022-08-19T11:33:29;5.68;;;2.40;;
24859;SDS011;12936;52.006;4.350;2022-08-19T11:35:58;7.50;;;2.33;;
24859;SDS011;12936;52.006;4.350;2022-08-19T11:38:27;6.03;;;2.67;;
24859;SDS011;12936;52.006;4.350;2022-08-19T11:40:57;3.85;;;2.40;;
24859;SDS011;12936;52.006;4.350;2022-08-19T11:43:27;8.15;;;2.00;;
24859;SDS011;12936;52.006;4.350;2022-08-19T11:46:03;6.80;;;2.40;;
24859;SDS011;12936;52.006;4.350;2022-08-19T11:48:33;5.25;;;2.40;;
24859;SDS011;12936;52.006;4.350;2022-08-19T11:51:03;3.85;;;2.38;;
24859;SDS011;12936;52.006;4.350;2022-08-19T11:53:32;5.00;;;2.33;;
24859;SDS011;12936;52.006;4.350;2022-08-19T11:56:01;7.25;;;2.58;;
24859;SDS011;12936;52.006;4.350;2022-08-19T11:58:31;4.18;;;2.33;;
24859;SDS011;12936;52.006;4.350;2022-08-19T12:01:04;5.72;;;2.47;;
24859;SDS011;12936;52.006;4.350;2022-08-19T12:03:32;6.38;;;2.80;;
24859;SDS011;12936;52.006;4.350;2022-08-19T12:06:03;3.88;;;2.40;;
24859;SDS011;12936;52.006;4.350;2022-08-19T12:08:31;5.25;;;2.47;;
24859;SDS011;12936;52.006;4.350;2022-08-19T12:11:00;6.03;;;2.80;;
24859;SDS011;12936;52.006;4.350;2022-08-19T12:13:28;4.45;;;3.15;;
24859;SDS011;12936;52.006;4.350;2022-08-19T12:15:58;5.25;;;2.70;;
24859;SDS011;12936;52.006;4.350;2022-08-19T12:18:26;5.30;;;2.80;;
24859;SDS011;12936;52.006;4.350;2022-08-19T12:20:54;11.32;;;3.33;;
24859;SDS011;12936;52.006;4.350;2022-08-19T12:23:23;6.35;;;2.80;;
24859;SDS011;12936;52.006;4.350;2022-08-19T12:25:51;4.40;;;2.60;;
24859;SDS011;12936;52.006;4.350;2022-08-19T12:28:21;5.15;;;2.40;;
24859;SDS011;12936;52.006;4.350;2022-08-19T12:30:50;3.92;;;2.53;;
24859;SDS011;12936;52.006;4.350;2022-08-19T12:33:20;4.43;;;2.42;;
24859;SDS011;12936;52.006;4.350;2022-08-19T12:35:51;5.78;;;3.00;;
24859;SDS011;12936;52.006;4.350;2022-08-19T12:38:20;6.75;;;2.63;;
24859;SDS011;12936;52.006;4.350;2022-08-19T12:40:50;5.93;;;2.42;;
24859;SDS011;12936;52.006;4.350;2022-08-19T12:43:24;4.90;;;2.22;;
24859;SDS011;12936;52.006;4.350;2022-08-19T12:45:53;6.30;;;2.13;;
24859;SDS011;12936;52.006;4.350;2022-08-19T12:48:23;5.03;;;2.45;;
24859;SDS011;12936;52.006;4.350;2022-08-19T12:50:59;6.18;;;2.50;;
24859;SDS011;12936;52.006;4.350;2022-08-19T12:53:28;4.60;;;2.25;;
24859;SDS011;12936;52.006;4.350;2022-08-19T12:55:56;5.32;;;2.38;;
24859;SDS011;12936;52.006;4.350;2022-08-19T12:58:26;6.32;;;2.45;;
24859;SDS011;12936;52.006;4.350;2022-08-19T13:00:54;5.38;;;2.30;;
24859;SDS011;12936;52.006;4.350;2022-08-19T13:03:24;4.88;;;2.65;;
24859;SDS011;12936;52.006;4.350;2022-08-19T13:05:56;3.42;;;2.08;;
24859;SDS011;12936;52.006;4.350;2022-08-19T13:08:24;2.00;;;1.90;;
24859;SDS011;12936;52.006;4.350;2022-08-19T13:10:52;3.58;;;1.90;;
24859;SDS011;12936;52.006;4.350;2022-08-19T13:13:21;2.40;;;1.45;;
24859;SDS011;12936;52.006;4.350;2022-08-19T13:15:52;3.20;;;1.70;;
24859;SDS011;12936;52.006;4.350;2022-08-19T13:18:20;4.43;;;1.73;;
24859;SDS011;12936;52.006;4.350;2022-08-19T13:20:51;4.93;;;1.80;;
24859;SDS011;12936;52.006;4.350;2022-08-19T13:23:19;2.88;;;1.80;;
24859;SDS011;12936;52.006;4.350;2022-08-19T13:25:55;4.47;;;1.95;;
24859;SDS011;12936;52.006;4.350;2022-08-19T13:28:23;2.80;;;1.83;;
24859;SDS011;12936;52.006;4.350;2022-08-19T13:30:54;3.28;;;1.50;;
24859;SDS011;12936;52.006;4.350;2022-08-19T13:33:40;2.25;;;1.45;;
24859;SDS011;12936;52.006;4.350;2022-08-19T13:36:10;1.67;;;1.20;;
24859;SDS011;12936;52.006;4.350;2022-08-19T13:38:38;2.03;;;1.20;;
24859;SDS011;12936;52.006;4.350;2022-08-19T13:41:06;2.78;;;1.60;;
24859;SDS011;12936;52.006;4.350;2022-08-19T13:43:40;3.75;;;1.60;;
24859;SDS011;12936;52.006;4.350;2022-08-19T13:46:09;3.60;;;1.30;;
24859;SDS011;12936;52.006;4.350;2022-08-19T13:48:40;2.90;;;1.35;;
24859;SDS011;12936;52.006;4.350;2022-08-19T13:51:10;3.28;;;1.95;;
24859;SDS011;12936;52.006;4.350;2022-08-19T13:53:38;2.72;;;1.80;;
24859;SDS011;12936;52.006;4.350;2022-08-19T13:56:13;2.83;;;1.63;;
24859;SDS011;12936;52.006;4.350;2022-08-19T13:58:42;3.00;;;1.95;;
24859;SDS011;12936;52.006;4.350;2022-08-19T14:01:10;2.80;;;1.70;;
24859;SDS011;12936;52.006;4.350;2022-08-19T14:03:39;4.10;;;2.10;;
24859;SDS011;12936;52.006;4.350;2022-08-19T14:06:07;2.72;;;1.33;;
24859;SDS011;12936;52.006;4.350;2022-08-19T14:08:37;2.38;;;1.60;;
24859;SDS011;12936;52.006;4.350;2022-08-19T14:11:11;2.33;;;1.75;;
24859;SDS011;12936;52.006;4.350;2022-08-19T14:13:39;3.58;;;1.75;;
24859;SDS011;12936;52.006;4.350;2022-08-19T14:16:08;4.20;;;1.90;;
24859;SDS011;12936;52.006;4.350;2022-08-19T14:18:37;3.30;;;1.75;;
24859;SDS011;12936;52.006;4.350;2022-08-19T14:21:06;4.63;;;1.90;;
24859;SDS011;12936;52.006;4.350;2022-08-19T14:23:34;2.75;;;2.05;;
24859;SDS011;12936;52.006;4.350;2022-08-19T14:26:05;3.58;;;1.70;;
24859;SDS011;12936;52.006;4.350;2022-08-19T14:28:33;2.08;;;1.35;;
24859;SDS011;12936;52.006;4.350;2022-08-19T14:31:02;4.25;;;1.80;;
24859;SDS011;12936;52.006;4.350;2022-08-19T14:33:30;4.97;;;2.08;;
24859;SDS011;12936;52.006;4.350;2022-08-19T14:35:59;3.25;;;1.77;;
24859;SDS011;12936;52.006;4.350;2022-08-19T14:38:27;5.68;;;2.30;;
24859;SDS011;12936;52.006;4.350;2022-08-19T14:41:07;4.03;;;1.80;;
24859;SDS011;12936;52.006;4.350;2022-08-19T14:43:35;5.25;;;1.83;;
24859;SDS011;12936;52.006;4.350;2022-08-19T14:46:04;5.63;;;2.33;;
24859;SDS011;12936;52.006;4.350;2022-08-19T14:48:35;6.25;;;1.80;;
24859;SDS011;12936;52.006;4.350;2022-08-19T14:51:06;2.60;;;1.50;;
24859;SDS011;12936;52.006;4.350;2022-08-19T14:53:35;2.78;;;1.77;;
24859;SDS011;12936;52.006;4.350;2022-08-19T14:56:08;2.28;;;1.70;;
24859;SDS011;12936;52.006;4.350;2022-08-19T14:58:36;3.88;;;2.30;;